Latest Weather Observations for Coondewanna

IDW60801

Issued at 6:14 pm WST Sunday 24 January 2021 (issued every 10 minutes, with the page automatically refreshed every 10 minutes)

About weather observations | Map of weather stations | Latest weather observations for WA | Other Formats
Station Details ID: 505051 Name: COONDEWANNA Lat: -22.96 Lon: 118.81 Height: 697.63 m
Data from the previous 72 hours. | See also: Recent months for locations in Western Australia
Date/Time
WST
Temp
°C
App
Temp
°C
Dew
Point
°C
Rel
Hum
%
Delta-T
°C
Wind Press
QNH
hPa
Press
MSL
hPa
Rain since
9am
mm
Dir  Spd
km/h
Gust
km/h
Spd
kts
Gust
kts
24/06:00pm 34.2 29.9 10.7 24 14.1 WSW 24 33 13 18 1006.3 999.8 0.0
24/05:30pm 34.8 29.9 11.2 24 14.3 W 28 39 15 21 1006.2 999.7 0.0
24/05:21pm 34.3 29.4 11.4 25 13.9 W 28 46 15 25 1006.2 999.7 0.0
24/05:00pm 35.2 30.0 11.6 24 14.4 W 30 43 16 23 1006.0 999.5 0.0
24/04:30pm 35.5 30.2 12.5 25 14.2 WSW 32 43 17 23 1006.0 999.5 0.0
24/04:00pm 35.6 30.5 11.9 24 14.6 W 30 43 16 23 1006.0 999.5 0.0
24/03:34pm 35.3 29.8 11.7 24 14.4 W 32 52 17 28 1006.0 999.5 0.0
24/03:30pm 35.9 30.5 12.2 24 14.6 WSW 32 46 17 25 1006.3 999.8 0.0
24/03:08pm 35.9 30.5 12.2 24 14.6 WSW 32 50 17 27 1006.2 999.7 0.0
24/03:00pm 36.6 31.2 12.1 23 15.2 WSW 32 43 17 23 1006.3 999.8 0.0
24/02:41pm 35.8 31.1 12.1 24 14.6 WSW 28 46 15 25 1006.6 1000.1 0.0
24/02:30pm 36.2 32.4 12.4 24 14.7 W 24 41 13 22 1006.6 1000.1 0.0
24/02:04pm 35.7 31.0 12.0 24 14.6 W 28 48 15 26 1006.9 1000.5 0.0
24/02:00pm 34.9 31.0 12.0 25 14.1 WSW 24 37 13 20 1007.0 1000.6 0.0
24/01:47pm 35.6 30.9 11.9 24 14.5 W 28 46 15 25 1007.1 1000.7 0.0
24/01:30pm 34.8 30.5 11.9 25 14.0 W 26 41 14 22 1007.2 1000.8 0.0
24/01:00pm 34.8 29.5 11.2 24 14.3 WSW 30 46 16 25 1007.7 1001.2 0.0
24/12:33pm 34.5 29.7 11.6 25 13.9 WSW 28 50 15 27 1008.0 1001.5 0.0
24/12:30pm 34.0 29.6 11.8 26 13.5 WSW 26 43 14 23 1008.0 1001.5 0.0
24/12:00pm 33.8 29.4 11.6 26 13.5 W 26 37 14 20 1008.5 1002.1 0.0
24/11:30am 32.9 27.9 10.9 26 13.2 WSW 28 43 15 23 1008.9 1002.5 0.0
24/11:13am 33.3 28.4 11.2 26 13.3 SW 28 46 15 25 1008.9 1002.5 0.0
24/11:00am 32.7 28.2 11.3 27 12.9 WSW 26 41 14 22 1009.2 1002.7 0.0
24/10:30am 31.6 27.2 10.3 27 12.6 W 24 32 13 17 1009.4 1002.9 0.0
24/10:00am 31.4 26.6 10.2 27 12.5 WSW 26 33 14 18 1009.7 1003.3 0.0
24/09:30am 30.8 25.8 9.6 27 12.3 WSW 26 35 14 19 1009.8 1003.4 0.0
24/09:00am 29.4 24.8 9.5 29 11.5 WSW 24 35 13 19 1009.9 1003.5 0.0
24/08:30am 28.3 22.5 9.6 31 10.7 WSW 30 37 16 20 1009.7 1003.3 0.0
24/08:00am 27.5 21.4 9.8 33 10.2 WSW 32 39 17 21 1009.6 1003.2 0.0
24/07:30am 27.2 22.4 10.4 35 9.7 WSW 26 33 14 18 1009.5 1003.0 0.0
24/07:00am 26.5 22.0 10.2 36 9.4 WSW 24 33 13 18 1009.2 1002.7 0.0
24/06:30am 25.6 22.1 10.2 38 8.8 WSW 19 30 10 16 1008.7 1002.3 0.0
24/06:00am 24.9 21.3 10.0 39 8.5 WSW 19 24 10 13 1008.5 1002.1 0.0
24/05:30am 24.6 21.3 9.7 39 8.4 WSW 17 22 9 12 1008.1 1001.6 0.0
24/05:00am 24.9 21.5 9.2 37 8.8 SW 17 22 9 12 1007.8 1001.3 0.0
24/04:30am 25.4 22.0 9.3 36 9.1 SW 17 20 9 11 1007.7 1001.2 0.0
24/04:00am 25.4 21.9 8.8 35 9.3 WSW 17 20 9 11 1007.7 1001.2 0.0
24/03:30am 25.5 23.5 8.5 34 9.5 SW 9 13 5 7 1007.6 1001.1 0.0
24/03:00am 26.2 22.2 8.2 32 10.0 SW 19 22 10 12 1007.4 1001.0 0.0
24/02:30am 26.6 22.9 8.1 31 10.3 SW 17 20 9 11 1007.6 1001.1 0.0
24/02:00am 27.3 23.5 7.7 29 10.9 WSW 17 22 9 12 1007.7 1001.2 0.0
24/01:30am 28.0 24.3 7.8 28 11.2 WSW 17 22 9 12 1007.7 1001.2 0.0
24/01:00am 27.3 24.3 7.7 29 10.9 WSW 13 15 7 8 1007.9 1001.4 0.0
24/12:30am 27.3 24.6 7.2 28 11.0 WSW 11 13 6 7 1008.0 1001.5 0.0
24/12:00am 27.9 25.0 6.6 26 11.6 WSW 11 13 6 7 1008.1 1001.6 0.0
 
Date/Time
WST
Temp
°C
App
Temp
°C
Dew
Point
°C
Rel
Hum
%
Delta-T
°C
Wind Press
QNH
hPa
Press
MSL
hPa
Rain since
9am
mm
Dir  Spd
km/h
Gust
km/h
Spd
kts
Gust
kts
23/11:30pm 28.8 25.6 6.8 25 12.1 WSW 13 17 7 9 1008.3 1001.9 0.0
23/11:00pm 29.0 26.1 6.4 24 12.4 WSW 11 15 6 8 1008.4 1002.0 0.0
23/10:30pm 29.7 26.4 6.4 23 12.8 WSW 13 17 7 9 1008.4 1002.0 0.0
23/10:00pm 30.2 26.3 5.5 21 13.4 WSW 15 17 8 9 1008.5 1002.1 0.0
23/09:30pm 30.8 26.9 5.3 20 13.8 WSW 15 19 8 10 1008.3 1001.9 0.0
23/09:00pm 31.4 26.9 4.2 18 14.6 WSW 17 26 9 14 1008.1 1001.6 0.0
23/08:30pm 32.0 27.4 3.9 17 15.0 WSW 17 20 9 11 1007.8 1001.3 0.0
23/08:00pm 32.7 27.5 3.6 16 15.5 WSW 20 26 11 14 1007.6 1001.1 0.0
23/07:30pm 33.4 26.8 2.3 14 16.3 WSW 26 33 14 18 1007.2 1000.8 0.0
23/07:00pm 33.9 27.2 1.6 13 16.8 W 26 37 14 20 1006.9 1000.5 0.0
23/06:30pm 34.7 27.4 -0.1 11 17.7 W 28 41 15 22 1006.4 999.9 0.0
23/06:00pm 35.9 28.5 -0.5 10 18.6 W 28 39 15 21 1006.0 999.5 0.0
23/05:35pm 36.5 28.2 0.0 10 18.8 WSW 33 52 18 28 1005.6 999.2 0.0
23/05:30pm 36.8 28.4 -1.2 9 19.2 WSW 33 43 18 23 1005.4 998.9 0.0
23/05:11pm 37.2 29.8 -0.9 9 19.4 WSW 28 48 15 26 1005.3 998.8 0.0
23/05:00pm 37.1 29.9 0.4 10 19.1 WSW 28 41 15 22 1005.1 998.6 0.0
23/04:33pm 37.3 30.3 1.9 11 18.8 WSW 28 52 15 28 1004.9 998.4 0.0
23/04:30pm 37.5 31.3 2.1 11 18.9 WSW 24 41 13 22 1004.7 998.2 0.0
23/04:00pm 37.6 29.1 0.8 10 19.3 WSW 35 52 19 28 1004.8 998.3 0.0
23/03:30pm 37.8 30.1 2.3 11 19.0 SW 32 50 17 27 1004.7 998.2 0.0
23/03:20pm 37.3 30.3 4.3 13 18.2 WSW 30 52 16 28 1004.9 998.4 0.0
23/03:00pm 37.8 31.3 4.7 13 18.5 W 28 41 15 22 1005.0 998.5 0.0
23/02:30pm 36.8 29.6 5.9 15 17.4 W 33 52 18 28 1005.1 998.6 0.0
23/02:00pm 36.8 30.8 6.9 16 17.2 WSW 28 46 15 25 1005.1 998.6 0.0
23/01:38pm 37.9 31.7 7.7 16 17.6 WSW 30 50 16 27 1005.1 998.6 0.0
23/01:30pm 36.8 31.5 6.9 16 17.1 W 24 44 13 24 1005.2 998.7 0.0
23/01:07pm 36.2 30.6 8.9 19 16.1 W 28 46 15 25 1005.5 999.0 0.0
23/01:00pm 35.4 30.2 9.0 20 15.5 WSW 26 41 14 22 1005.7 999.3 0.0
23/12:30pm 35.1 29.7 9.5 21 15.1 WSW 28 48 15 26 1006.1 999.6 0.0
23/12:24pm 36.2 30.3 8.9 19 16.1 SW 30 48 16 26 1006.0 999.5 0.0
23/12:00pm 35.6 30.3 8.4 19 15.9 WSW 26 44 14 24 1006.3 999.8 0.0
23/11:30am 34.4 30.4 8.9 21 14.9 WSW 20 43 11 23 1006.4 999.9 0.0
23/11:00am 33.3 30.4 12.3 28 12.9 WNW 19 32 10 17 1006.8 1000.3 0.0
23/10:30am 31.4 30.4 14.5 35 10.6 SSW 13 20 7 11 1007.1 1000.7 0.0
23/10:00am 29.8 28.4 14.4 39 9.6 WNW 15 30 8 16 1007.4 1001.0 0.0
23/09:30am 28.8 29.0 15.7 45 8.3 NW 9 17 5 9 1007.8 1001.3 0.0
23/09:00am 27.3 28.2 16.0 50 7.2 WNW 6 9 3 5 1007.9 1001.4 0.0
23/08:30am 26.7 27.6 16.6 54 6.4 E 7 19 4 10 1007.6 1001.1 0.0
23/08:00am 25.4 26.0 16.8 59 5.5 SSE 9 15 5 8 1007.4 1001.0 0.0
23/07:30am 23.8 23.4 16.3 63 4.7 SE 13 17 7 9 1007.3 1000.9 0.0
23/07:00am 23.3 22.0 16.8 67 4.1 E 19 24 10 13 1007.4 1001.0 0.0
23/06:30am 23.0 25.0 17.0 69 3.8 ENE 2 7 1 4 1007.3 1000.9 0.0
23/06:00am 21.2 23.0 16.4 74 3.0 ENE 2 7 1 4 1007.0 1000.6 0.0
23/05:30am 21.7 22.7 16.4 72 3.3 ENE 6 7 3 4 1006.5 1000.0 0.0
23/05:00am 22.4 22.7 16.9 71 3.5 ENE 11 13 6 7 1006.3 999.8 0.0
23/04:30am 22.3 23.4 16.6 70 3.6 ENE 6 9 3 5 1006.0 999.5 0.0
23/04:00am 22.5 23.5 16.8 70 3.6 ENE 7 7 4 4 1006.0 999.5 0.0
23/03:30am 22.7 23.7 16.9 70 3.7 ENE 7 9 4 5 1006.1 999.6 0.0
23/03:00am 22.7 25.0 16.7 69 3.8 CALM 0 0 0 0 1006.1 999.6 0.0
23/02:30am 22.5 24.4 16.8 70 3.6 ENE 2 6 1 3 1006.3 999.8 0.0
23/02:00am 22.6 25.0 16.9 70 3.6 CALM 0 0 0 0 1006.4 999.9 0.0
23/01:30am 23.4 24.2 17.2 68 3.9 ENE 9 11 5 6 1006.1 999.6 0.0
23/01:00am 23.2 24.3 17.2 69 3.8 ENE 7 11 4 6 1006.2 999.7 0.0
23/12:30am 23.6 23.8 17.6 69 3.8 ENE 13 15 7 8 1006.5 1000.0 0.0
23/12:00am 23.9 24.1 17.6 68 4.0 ENE 13 17 7 9 1007.2 1000.8 0.0
 
Date/Time
WST
Temp
°C
App
Temp
°C
Dew
Point
°C
Rel
Hum
%
Delta-T
°C
Wind Press
QNH
hPa
Press
MSL
hPa
Rain since
9am
mm
Dir  Spd
km/h
Gust
km/h
Spd
kts
Gust
kts
22/11:30pm 24.4 24.0 17.1 63 4.6 ENE 15 20 8 11 1007.6 1001.1 0.0
22/11:00pm 25.3 24.0 14.7 51 6.5 ESE 15 22 8 12 1007.8 1001.3 0.0
22/10:30pm 25.7 23.9 14.5 50 6.9 E 17 24 9 13 1008.1 1001.6 0.0
22/10:00pm 26.1 23.8 14.2 48 7.3 ESE 19 20 10 11 1008.3 1001.9 0.0
22/09:30pm 26.2 23.3 14.0 47 7.5 ESE 22 28 12 15 1008.1 1001.6 0.0
22/09:00pm 26.5 23.9 13.9 45 7.7 ESE 20 26 11 14 1008.2 1001.7 0.0
22/08:30pm 26.9 23.6 12.9 42 8.4 ESE 22 30 12 16 1007.9 1001.4 0.0
22/08:00pm 27.4 22.1 13.0 41 8.7 ESE 33 41 18 22 1007.6 1001.1 0.0
22/07:30pm 28.4 23.0 12.7 38 9.5 ESE 33 44 18 24 1007.1 1000.7 0.0
22/07:00pm 29.5 25.0 14.9 41 9.2 ESE 32 41 17 22 1006.5 1000.0 0.0
22/06:30pm 31.2 26.7 13.9 35 10.8 E 30 41 16 22 1006.3 999.8 0.0
22/06:00pm 32.9 29.1 13.5 30 12.1 E 26 39 14 21 1005.5 999.0 0.0
22/05:30pm 33.4 28.5 12.4 28 12.9 ESE 30 39 16 21 1005.3 998.8 0.0
22/05:00pm 33.9 28.4 11.7 26 13.5 ESE 32 41 17 22 1005.1 998.6 0.0
22/04:30pm 34.0 28.5 11.8 26 13.5 ESE 32 46 17 25 1005.1 998.6 0.0
22/04:00pm 35.6 31.1 11.3 23 14.8 E 26 41 14 22 1005.2 998.7 0.0
22/03:44pm 34.7 29.6 11.8 25 14.0 ESE 30 48 16 26 1005.3 998.8 0.0
22/03:30pm 35.1 30.3 11.5 24 14.4 E 28 43 15 23 1005.3 998.8 0.0
22/03:00pm 35.1 30.8 10.9 23 14.6 ESE 24 41 13 22 1006.0 999.5 0.0
22/02:30pm 34.2 29.7 11.4 25 13.8 E 26 41 14 22 1006.4 999.9 0.0
22/02:00pm 35.6 30.7 11.3 23 14.8 ESE 28 39 15 21 1006.8 1000.3 0.0
22/01:30pm 35.2 31.5 10.3 22 14.9 ESE 20 30 11 16 1007.1 1000.7 0.0
22/01:00pm 34.5 32.0 11.0 24 14.2 ESE 15 24 8 13 1007.4 1001.0 0.0
22/12:30pm 33.7 30.8 10.9 25 13.7 SSE 17 33 9 18 1008.0 1001.5 0.0
22/12:00pm 33.0 30.0 12.6 29 12.5 ESE 20 32 11 17 1008.5 1002.1 0.0
22/11:30am 33.3 31.0 12.9 29 12.6 ESE 17 28 9 15 1008.9 1002.5 0.0
22/11:00am 33.4 32.2 14.0 31 12.2 E 13 20 7 11 1009.7 1003.3 0.0
22/10:30am 31.3 28.8 13.6 34 11.0 ESE 19 28 10 15 1010.2 1003.8 0.0
22/10:00am 31.8 30.7 15.3 37 10.5 ENE 15 24 8 13 1010.3 1003.9 0.0
22/09:30am 29.8 29.0 15.1 40 9.3 ENE 13 19 7 10 1010.4 1004.0 0.0
22/09:00am 28.6 29.5 16.5 48 7.8 NE 7 13 4 7 1010.8 1004.3 1.0
22/08:30am 27.5 28.7 17.4 54 6.5 N 7 11 4 6 1011.2 1004.8 1.0
22/08:00am 27.2 29.2 17.9 56 6.1 WNW 4 11 2 6 1011.3 1004.9 1.0
22/07:30am 26.7 28.2 18.0 59 5.7 WNW 7 11 4 6 1011.3 1004.9 1.0
22/07:00am 25.9 27.4 18.1 62 5.1 W 7 9 4 5 1011.0 1004.6 1.0
22/06:30am 25.2 26.2 17.7 63 4.8 W 9 11 5 6 1010.8 1004.3 1.0
22/06:00am 25.3 27.0 18.5 66 4.4 N 7 9 4 5 1010.2 1003.8 1.0
22/05:30am 26.0 26.6 18.7 64 4.8 N 13 19 7 10 1009.7 1003.3 1.0
22/05:00am 25.9 25.1 18.1 62 5.1 N 19 26 10 14 1009.6 1003.2 1.0
22/04:30am 26.2 26.0 17.6 59 5.6 N 15 24 8 13 1009.4 1002.9 1.0
22/04:00am 26.4 25.7 16.3 53 6.4 N 15 22 8 12 1009.2 1002.7 1.0
22/03:30am 25.5 25.9 16.4 57 5.8 N 9 15 5 8 1009.1 1002.6 1.0
22/03:00am 24.8 27.5 17.8 65 4.5 CALM 0 0 0 0 1008.8 1002.4 1.0
22/02:30am 24.3 26.1 18.2 68 3.9 N 6 9 3 5 1008.7 1002.3 1.0
22/02:00am 24.8 26.8 17.0 62 5.0 N 2 7 1 4 1008.8 1002.4 1.0
22/01:30am 25.5 27.2 17.2 60 5.3 N 4 9 2 5 1008.9 1002.5 1.0
22/01:00am 25.6 26.2 15.9 55 6.1 N 7 9 4 5 1009.5 1003.0 1.0
22/12:30am 25.6 26.3 16.2 56 5.9 N 7 13 4 7 1009.9 1003.5 1.0
22/12:00am 25.5 27.6 17.2 60 5.3 N 2 6 1 3 1009.8 1003.4 1.0
 
Date/Time
WST
Temp
°C
App
Temp
°C
Dew
Point
°C
Rel
Hum
%
Delta-T
°C
Wind Press
QNH
hPa
Press
MSL
hPa
Rain since
9am
mm
Dir  Spd
km/h
Gust
km/h
Spd
kts
Gust
kts
21/11:30pm 25.5 26.5 16.4 57 5.8 N 6 9 3 5 1010.0 1003.6 1.0
21/11:00pm 25.6 27.3 16.2 56 5.9 N 2 7 1 4 1010.4 1004.0 1.0
21/10:30pm 25.3 26.4 17.2 61 5.2 N 7 9 4 5 1010.9 1004.5 1.0
21/10:00pm 25.4 25.2 16.8 59 5.5 NNW 13 24 7 13 1010.9 1004.5 1.0
21/09:30pm 25.1 25.7 17.8 64 4.7 NNW 11 15 6 8 1010.9 1004.5 1.0
21/09:00pm 24.8 24.0 18.0 66 4.4 NW 19 28 10 15 1010.8 1004.3 1.0
21/08:37pm 24.2 22.1 17.2 65 4.5 W 24 35 13 19 1010.6 1004.1 0.8
21/08:30pm 29.2 26.5 14.6 41 9.1 NW 22 33 12 18 1010.6 1004.1 0.0
21/08:00pm 31.7 29.0 17.6 43 9.3 N 28 41 15 22 1009.4 1002.9 0.0
21/07:30pm 32.5 28.5 16.3 37 10.5 N 32 54 17 29 1008.5 1002.1 0.0
21/07:23pm 33.1 30.9 16.0 35 11.0 NNE 22 52 12 28 1008.3 1001.9 0.0
21/07:21pm 33.5 31.9 15.9 34 11.3 NNE 19 52 10 28 1008.3 1001.9 0.0
21/07:00pm 36.3 32.8 7.4 17 16.7 NNE 15 24 8 13 1007.7 1001.2 0.0
21/06:30pm 36.6 33.4 6.7 16 17.1 NE 13 24 7 13 1007.1 1000.7 0.0

Other formats

Comma delimited format used in spreadsheet applications
http://www.bom.gov.au/fwo/IDW60801/IDW60801.99312.axf

JavaScript Object Notation format (JSON) in row-major order
http://www.bom.gov.au/fwo/IDW60801/IDW60801.99312.json

Data quality

Most of these data are generated automatically and are frequently updated. Quality checks on data are not normally performed. It is possible for incorrect values to appear. Refer to information at About Latest Weather Observations and please check the disclaimer before using these data.